Time;durP1;ratioP1;P1;durP2;ratioP2;P2;SDS_P1;SDS_P2;PMS_P1;PMS_P2;Temp;Humidity;BMP_temperature;BMP_pressure;BME280_temperature;BME280_humidity;BME280_pressure;Samples;Min_cycle;Max_cycle;Signal;HPM_P1;HPM_P2
2023/05/30 00:01:19;;;;;;;35.58;4.97;;;;;;;;;;5010889;28;20398;-73
2023/05/30 00:03:46;;;;;;;31.83;5.30;;;;;;;;;;5020391;28;20026;-73
2023/05/30 00:06:12;;;;;;;33.20;5.50;;;;;;;;;;5026280;28;20160;-73
2023/05/30 00:08:39;;;;;;;31.42;5.65;;;;;;;;;;5017943;28;20014;-72
2023/05/30 00:11:06;;;;;;;25.45;5.15;;;;;;;;;;5014086;28;20033;-73
2023/05/30 00:13:32;;;;;;;31.27;5.60;;;;;;;;;;5014230;28;20053;-74
2023/05/30 00:15:58;;;;;;;33.45;5.80;;;;;;;;;;5013857;28;20026;-72
2023/05/30 00:18:25;;;;;;;30.55;4.85;;;;;;;;;;5013204;28;20539;-73
2023/05/30 00:20:51;;;;;;;35.63;5.18;;;;;;;;;;5013443;28;20490;-73
2023/05/30 00:23:17;;;;;;;28.15;4.82;;;;;;;;;;5011832;28;20034;-73
2023/05/30 00:25:45;;;;;;;29.20;5.00;;;;;;;;;;5029075;28;20367;-73
2023/05/30 00:28:11;;;;;;;32.10;5.40;;;;;;;;;;5015710;28;20029;-73
2023/05/30 00:30:37;;;;;;;32.75;5.07;;;;;;;;;;5019256;28;20034;-73
2023/05/30 00:33:04;;;;;;;28.10;5.00;;;;;;;;;;5031814;28;20026;-73
2023/05/30 00:35:30;;;;;;;31.48;5.40;;;;;;;;;;5014131;28;20018;-73
2023/05/30 00:37:56;;;;;;;27.48;4.75;;;;;;;;;;5014381;28;20360;-73
2023/05/30 00:40:22;;;;;;;34.45;6.75;;;;;;;;;;5014207;28;20055;-72
2023/05/30 00:42:48;;;;;;;20.85;4.38;;;;;;;;;;5013493;28;20064;-73
2023/05/30 00:45:13;;;;;;;26.75;5.00;;;;;;;;;;5014710;28;20489;-73
2023/05/30 00:47:40;;;;;;;30.33;5.25;;;;;;;;;;5014141;28;20037;-73
2023/05/30 00:50:06;;;;;;;29.88;5.18;;;;;;;;;;5013546;28;20022;-73
2023/05/30 00:52:33;;;;;;;31.83;4.60;;;;;;;;;;5013417;28;20026;-72
2023/05/30 00:55:02;;;;;;;25.52;5.20;;;;;;;;;;5014267;28;20105;-72
2023/05/30 00:57:29;;;;;;;29.02;5.25;;;;;;;;;;5014879;28;20033;-72
2023/05/30 00:59:55;;;;;;;27.25;5.03;;;;;;;;;;5014251;28;20029;-72
2023/05/30 01:02:23;;;;;;;28.65;4.97;;;;;;;;;;5012936;28;20030;-72
2023/05/30 01:04:49;;;;;;;31.48;5.07;;;;;;;;;;5014116;28;20049;-72
2023/05/30 01:07:15;;;;;;;26.98;4.85;;;;;;;;;;5011848;28;20475;-72
2023/05/30 01:09:41;;;;;;;28.83;5.47;;;;;;;;;;5013821;28;20072;-72
2023/05/30 01:12:17;;;;;;;34.90;5.25;;;;;;;;;;5013193;28;20052;-73
2023/05/30 01:14:47;;;;;;;30.48;5.00;;;;;;;;;;5013360;28;20018;-72
2023/05/30 01:17:23;;;;;;;21.95;4.38;;;;;;;;;;5013961;28;20021;-72
2023/05/30 01:20:07;;;;;;;32.80;4.97;;;;;;;;;;5013706;28;20026;-72
2023/05/30 01:22:36;;;;;;;21.92;4.85;;;;;;;;;;5014946;28;20569;-73
2023/05/30 01:25:18;;;;;;;28.65;4.60;;;;;;;;;;5031548;28;20090;-73
2023/05/30 01:27:52;;;;;;;28.58;5.00;;;;;;;;;;5030941;28;20029;-73
2023/05/30 01:30:19;;;;;;;27.55;4.55;;;;;;;;;;5016333;28;20100;-74
2023/05/30 01:32:45;;;;;;;35.05;4.85;;;;;;;;;;5015173;28;20050;-73
2023/05/30 01:35:24;;;;;;;29.90;4.47;;;;;;;;;;5016101;28;20036;-74
2023/05/30 01:37:50;;;;;;;25.80;4.82;;;;;;;;;;5015571;28;20383;-74
2023/05/30 01:40:18;;;;;;;23.45;4.50;;;;;;;;;;5015623;28;20101;-71
2023/05/30 01:42:45;;;;;;;28.13;4.25;;;;;;;;;;5015748;28;20036;-72
2023/05/30 01:45:21;;;;;;;31.17;6.20;;;;;;;;;;5016000;28;20040;-72
2023/05/30 01:47:54;;;;;;;24.55;4.35;;;;;;;;;;5015582;28;20395;-73
2023/05/30 01:50:23;;;;;;;24.42;5.47;;;;;;;;;;5014329;28;20058;-73
2023/05/30 01:52:57;;;;;;;25.58;4.88;;;;;;;;;;5013142;28;20026;-72
2023/05/30 01:55:23;;;;;;;24.27;4.60;;;;;;;;;;5012539;28;20026;-72
2023/05/30 01:57:50;;;;;;;29.00;4.40;;;;;;;;;;5012982;28;20021;-72
2023/05/30 02:00:17;;;;;;;32.03;5.50;;;;;;;;;;5013071;28;20029;-72
2023/05/30 02:02:43;;;;;;;18.23;4.68;;;;;;;;;;5012250;28;20064;-72
2023/05/30 02:05:10;;;;;;;21.60;4.65;;;;;;;;;;5010400;28;20148;-71
2023/05/30 02:07:36;;;;;;;21.00;5.03;;;;;;;;;;5011940;28;20057;-71
2023/05/30 02:10:02;;;;;;;27.38;4.65;;;;;;;;;;5012798;28;20033;-71
2023/05/30 02:12:28;;;;;;;25.85;5.07;;;;;;;;;;5013444;28;20033;-71
2023/05/30 02:14:54;;;;;;;29.08;5.05;;;;;;;;;;5012643;28;20022;-72
2023/05/30 02:17:21;;;;;;;22.80;4.90;;;;;;;;;;5012345;28;20018;-72
2023/05/30 02:19:47;;;;;;;21.52;4.05;;;;;;;;;;5011819;28;20030;-72
2023/05/30 02:22:13;;;;;;;27.40;5.15;;;;;;;;;;5011890;28;20399;-73
2023/05/30 02:24:39;;;;;;;24.00;4.65;;;;;;;;;;5012221;28;20251;-71
2023/05/30 02:27:06;;;;;;;22.77;4.63;;;;;;;;;;5015622;28;20034;-72
2023/05/30 02:29:32;;;;;;;20.95;4.78;;;;;;;;;;5015412;28;20018;-73
2023/05/30 02:31:58;;;;;;;22.65;4.20;;;;;;;;;;5013739;28;20133;-72
2023/05/30 02:34:24;;;;;;;31.85;5.45;;;;;;;;;;5014400;28;20034;-71
2023/05/30 02:36:50;;;;;;;30.17;5.10;;;;;;;;;;5013826;28;20088;-71
2023/05/30 02:39:16;;;;;;;24.67;4.60;;;;;;;;;;5012504;28;20030;-71
2023/05/30 02:41:42;;;;;;;26.33;4.70;;;;;;;;;;5012649;28;20060;-70
2023/05/30 02:44:08;;;;;;;18.90;4.35;;;;;;;;;;5015673;28;20034;-71
2023/05/30 02:46:35;;;;;;;28.55;5.40;;;;;;;;;;5015120;28;20022;-72
2023/05/30 02:49:01;;;;;;;32.90;5.53;;;;;;;;;;5013780;28;20029;-71
2023/05/30 02:51:28;;;;;;;34.17;7.05;;;;;;;;;;5013736;28;20022;-73
2023/05/30 02:53:54;;;;;;;27.98;5.10;;;;;;;;;;5013609;28;20033;-71
2023/05/30 02:56:22;;;;;;;28.20;5.03;;;;;;;;;;5013505;28;20036;-72
2023/05/30 02:58:49;;;;;;;26.38;5.07;;;;;;;;;;5013665;28;20025;-74
2023/05/30 03:01:15;;;;;;;25.13;5.32;;;;;;;;;;5013867;28;20025;-72
2023/05/30 03:03:41;;;;;;;23.45;4.72;;;;;;;;;;5012846;28;20029;-72
2023/05/30 03:06:08;;;;;;;22.95;5.70;;;;;;;;;;5014205;28;20014;-72
2023/05/30 03:08:36;;;;;;;24.90;5.43;;;;;;;;;;5013446;28;20018;-72
2023/05/30 03:11:02;;;;;;;33.03;5.95;;;;;;;;;;5013358;28;20022;-73
2023/05/30 03:13:27;;;;;;;31.95;5.72;;;;;;;;;;5012533;28;20474;-73
2023/05/30 03:15:53;;;;;;;34.42;6.10;;;;;;;;;;5013243;28;20021;-73
2023/05/30 03:18:19;;;;;;;25.30;4.97;;;;;;;;;;5015464;28;20499;-71
2023/05/30 03:20:46;;;;;;;21.90;4.95;;;;;;;;;;5014507;28;20026;-71
2023/05/30 03:23:12;;;;;;;21.92;4.88;;;;;;;;;;5013042;28;20030;-71
2023/05/30 03:25:38;;;;;;;28.02;5.63;;;;;;;;;;5014421;28;20550;-71
2023/05/30 03:28:07;;;;;;;25.13;5.28;;;;;;;;;;5015257;28;20030;-70
2023/05/30 03:30:33;;;;;;;25.23;6.20;;;;;;;;;;5013296;28;20033;-73
2023/05/30 03:33:02;;;;;;;30.65;5.78;;;;;;;;;;4994397;28;20023;-71
2023/05/30 03:35:28;;;;;;;28.10;5.60;;;;;;;;;;4994077;28;20041;-75
2023/05/30 03:37:55;;;;;;;25.17;5.22;;;;;;;;;;4994927;28;20101;-72
2023/05/30 03:40:21;;;;;;;34.45;5.90;;;;;;;;;;4994849;28;20446;-72
2023/05/30 03:42:47;;;;;;;31.58;5.45;;;;;;;;;;4992789;28;20034;-72
2023/05/30 03:45:13;;;;;;;30.02;5.45;;;;;;;;;;4993617;28;20018;-71
2023/05/30 03:47:38;;;;;;;29.67;6.20;;;;;;;;;;4993962;28;20100;-72
2023/05/30 03:50:05;;;;;;;29.17;5.82;;;;;;;;;;4994124;28;20030;-72
2023/05/30 03:52:31;;;;;;;33.33;6.38;;;;;;;;;;5002316;28;20027;-72
2023/05/30 03:54:57;;;;;;;33.85;6.30;;;;;;;;;;5001333;28;20502;-71
2023/05/30 03:57:23;;;;;;;29.00;5.57;;;;;;;;;;4997872;28;20022;-72
2023/05/30 03:59:50;;;;;;;28.30;5.07;;;;;;;;;;5003065;28;20431;-71
2023/05/30 04:02:16;;;;;;;20.85;5.40;;;;;;;;;;4997138;28;20019;-72
2023/05/30 04:04:41;;;;;;;31.45;6.40;;;;;;;;;;4995156;28;20189;-72
2023/05/30 04:07:08;;;;;;;29.33;5.60;;;;;;;;;;4996192;28;20026;-72
2023/05/30 04:09:34;;;;;;;27.85;5.97;;;;;;;;;;4994143;28;20065;-72
2023/05/30 04:12:01;;;;;;;37.25;6.55;;;;;;;;;;4990764;28;20022;-72
2023/05/30 04:14:27;;;;;;;31.45;5.75;;;;;;;;;;4992626;28;20046;-71
2023/05/30 04:16:53;;;;;;;33.00;6.43;;;;;;;;;;4992080;28;20105;-71
2023/05/30 04:19:19;;;;;;;36.80;6.22;;;;;;;;;;4992101;28;20444;-71
2023/05/30 04:21:45;;;;;;;24.52;5.57;;;;;;;;;;4992193;28;20035;-72
2023/05/30 04:24:12;;;;;;;30.33;5.45;;;;;;;;;;4991820;28;20034;-71
2023/05/30 04:26:38;;;;;;;29.95;6.47;;;;;;;;;;4992005;28;20531;-71
2023/05/30 04:29:04;;;;;;;33.50;7.15;;;;;;;;;;4992102;28;20026;-72
2023/05/30 04:31:30;;;;;;;31.33;5.97;;;;;;;;;;4992487;28;20033;-73
2023/05/30 04:33:56;;;;;;;32.22;5.35;;;;;;;;;;4992565;28;20034;-73
2023/05/30 04:36:23;;;;;;;32.78;5.38;;;;;;;;;;4993747;28;20488;-72
2023/05/30 04:38:49;;;;;;;31.73;6.20;;;;;;;;;;4993257;28;20101;-74
2023/05/30 04:41:20;;;;;;;29.23;6.00;;;;;;;;;;5009002;28;20447;-74
2023/05/30 04:43:54;;;;;;;28.98;6.28;;;;;;;;;;5011098;28;20029;-74
2023/05/30 04:46:23;;;;;;;31.70;6.43;;;;;;;;;;5012284;28;20022;-74
2023/05/30 04:48:53;;;;;;;34.53;6.35;;;;;;;;;;5013391;28;20018;-76
2023/05/30 04:51:23;;;;;;;29.63;5.63;;;;;;;;;;5012874;28;20033;-76
2023/05/30 04:53:49;;;;;;;33.13;6.20;;;;;;;;;;5012079;28;20030;-71
2023/05/30 04:56:15;;;;;;;26.90;5.53;;;;;;;;;;5011275;28;20037;-72
2023/05/30 04:58:44;;;;;;;28.80;5.82;;;;;;;;;;5011233;28;20026;-72
2023/05/30 05:01:10;;;;;;;24.90;5.35;;;;;;;;;;5011377;28;20538;-72
2023/05/30 05:03:40;;;;;;;23.77;6.88;;;;;;;;;;5011159;28;20363;-72
2023/05/30 05:06:07;;;;;;;31.60;6.13;;;;;;;;;;5011404;28;20354;-73
2023/05/30 05:08:36;;;;;;;42.10;8.13;;;;;;;;;;5011292;28;20026;-72
2023/05/30 05:11:03;;;;;;;29.95;6.07;;;;;;;;;;5010786;28;20096;-73
2023/05/30 05:13:29;;;;;;;27.85;6.07;;;;;;;;;;5011647;28;20105;-72
2023/05/30 05:15:55;;;;;;;25.48;6.38;;;;;;;;;;5014953;28;20034;-72
2023/05/30 05:18:21;;;;;;;28.58;6.25;;;;;;;;;;5014637;28;20132;-72
2023/05/30 05:20:48;;;;;;;37.67;7.20;;;;;;;;;;5014266;28;20030;-72
2023/05/30 05:23:14;;;;;;;37.85;6.95;;;;;;;;;;5014272;28;20030;-74
2023/05/30 05:25:40;;;;;;;27.58;6.55;;;;;;;;;;5014360;28;20101;-75
2023/05/30 05:28:06;;;;;;;28.52;6.40;;;;;;;;;;5014467;28;20205;-74
2023/05/30 05:30:32;;;;;;;38.03;6.35;;;;;;;;;;5014291;28;20018;-76
2023/05/30 05:32:58;;;;;;;30.40;8.35;;;;;;;;;;5014986;28;20057;-75
2023/05/30 05:35:24;;;;;;;30.52;6.72;;;;;;;;;;5014432;28;20471;-75
2023/05/30 05:37:50;;;;;;;34.63;6.72;;;;;;;;;;5014064;28;20040;-75
2023/05/30 05:40:16;;;;;;;32.85;6.40;;;;;;;;;;5013658;28;20037;-74
2023/05/30 05:42:43;;;;;;;25.73;6.63;;;;;;;;;;5013537;28;20026;-73
2023/05/30 05:45:09;;;;;;;29.55;5.95;;;;;;;;;;5012256;28;20030;-76
2023/05/30 05:47:35;;;;;;;27.65;6.22;;;;;;;;;;5015319;28;20022;-77
2023/05/30 05:50:01;;;;;;;29.80;6.32;;;;;;;;;;5014783;28;20113;-77
2023/05/30 05:52:27;;;;;;;26.95;6.22;;;;;;;;;;5014788;28;20030;-76
2023/05/30 05:54:53;;;;;;;28.02;5.75;;;;;;;;;;5008432;28;20490;-75
2023/05/30 05:57:19;;;;;;;28.33;5.93;;;;;;;;;;5016685;28;20032;-74
2023/05/30 05:59:45;;;;;;;26.25;5.82;;;;;;;;;;5014098;28;20379;-75
2023/05/30 06:02:12;;;;;;;31.08;6.40;;;;;;;;;;5013983;28;20033;-74
2023/05/30 06:04:38;;;;;;;22.65;5.65;;;;;;;;;;5013670;28;20066;-73
2023/05/30 06:07:04;;;;;;;22.00;5.80;;;;;;;;;;5007572;28;20029;-73
2023/05/30 06:09:31;;;;;;;29.50;6.88;;;;;;;;;;5013426;28;20457;-73
2023/05/30 06:12:00;;;;;;;31.17;6.65;;;;;;;;;;5013669;28;20124;-72
2023/05/30 06:14:26;;;;;;;23.67;5.45;;;;;;;;;;5013651;28;20025;-72
2023/05/30 06:16:53;;;;;;;25.15;5.53;;;;;;;;;;5013891;28;20025;-72
2023/05/30 06:19:19;;;;;;;17.73;5.43;;;;;;;;;;5013530;28;20048;-72
2023/05/30 06:21:45;;;;;;;24.88;5.50;;;;;;;;;;5013288;28;20022;-72
2023/05/30 06:24:11;;;;;;;22.38;6.35;;;;;;;;;;5013072;28;20367;-71
2023/05/30 06:26:37;;;;;;;21.13;5.20;;;;;;;;;;5013822;28;20034;-74
2023/05/30 06:29:03;;;;;;;29.33;5.78;;;;;;;;;;5015505;28;20026;-71
2023/05/30 06:31:29;;;;;;;22.92;5.60;;;;;;;;;;5014244;28;20113;-73
2023/05/30 06:33:55;;;;;;;22.40;6.40;;;;;;;;;;5014605;28;20060;-71
2023/05/30 06:36:21;;;;;;;30.48;5.78;;;;;;;;;;5014374;28;20037;-70
2023/05/30 06:38:47;;;;;;;25.02;6.03;;;;;;;;;;5014109;28;20060;-71
2023/05/30 06:41:13;;;;;;;21.05;4.60;;;;;;;;;;5014108;28;20061;-72
2023/05/30 06:43:39;;;;;;;25.98;5.00;;;;;;;;;;5014002;28;20491;-72
2023/05/30 06:46:06;;;;;;;22.38;6.10;;;;;;;;;;5013970;28;20057;-72
2023/05/30 06:48:32;;;;;;;29.45;7.65;;;;;;;;;;5012897;28;20022;-71
2023/05/30 06:50:58;;;;;;;22.08;6.03;;;;;;;;;;5012708;28;20022;-72
2023/05/30 06:53:24;;;;;;;23.92;5.72;;;;;;;;;;5011086;28;20030;-73
2023/05/30 06:55:49;;;;;;;17.77;5.63;;;;;;;;;;5012051;28;20030;-72
2023/05/30 06:58:16;;;;;;;19.02;5.47;;;;;;;;;;5012267;28;20395;-73
2023/05/30 07:00:42;;;;;;;20.90;4.85;;;;;;;;;;5012224;28;20030;-75
2023/05/30 07:03:08;;;;;;;19.80;6.05;;;;;;;;;;5011174;28;20057;-73
2023/05/30 07:05:34;;;;;;;21.08;5.05;;;;;;;;;;5019419;28;20030;-72
2023/05/30 07:08:00;;;;;;;21.98;5.13;;;;;;;;;;5018919;28;20030;-74
2023/05/30 07:10:26;;;;;;;23.35;6.38;;;;;;;;;;5016912;28;20029;-73
2023/05/30 07:12:52;;;;;;;25.23;6.80;;;;;;;;;;5014526;28;20512;-73
2023/05/30 07:15:18;;;;;;;15.25;6.80;;;;;;;;;;5019661;28;20079;-74
2023/05/30 07:17:44;;;;;;;18.00;4.63;;;;;;;;;;5013477;28;20400;-73
2023/05/30 07:20:10;;;;;;;18.90;5.05;;;;;;;;;;5012558;28;20036;-73
2023/05/30 07:22:38;;;;;;;25.48;6.22;;;;;;;;;;5010895;28;20156;-75
2023/05/30 07:25:05;;;;;;;27.15;6.28;;;;;;;;;;5011591;28;20029;-73
2023/05/30 07:27:31;;;;;;;17.95;5.93;;;;;;;;;;5011280;28;20042;-73
2023/05/30 07:29:57;;;;;;;16.90;5.50;;;;;;;;;;5011110;28;20057;-72
2023/05/30 07:32:23;;;;;;;33.25;11.55;;;;;;;;;;5010715;28;20026;-74
2023/05/30 07:34:49;;;;;;;20.55;5.35;;;;;;;;;;5013015;28;20032;-73
2023/05/30 07:37:15;;;;;;;25.45;6.10;;;;;;;;;;5010477;28;20026;-72
2023/05/30 07:39:41;;;;;;;26.33;6.50;;;;;;;;;;5010805;28;20034;-72
2023/05/30 07:42:07;;;;;;;15.32;5.05;;;;;;;;;;5010710;28;20076;-72
2023/05/30 07:44:33;;;;;;;27.88;6.00;;;;;;;;;;5011293;28;20035;-78
2023/05/30 07:46:59;;;;;;;17.50;5.43;;;;;;;;;;5011494;28;20144;-72
2023/05/30 07:49:25;;;;;;;31.90;5.85;;;;;;;;;;5011348;28;20080;-74
2023/05/30 07:51:51;;;;;;;22.23;6.20;;;;;;;;;;5010711;28;20080;-73
2023/05/30 07:54:17;;;;;;;22.85;5.55;;;;;;;;;;5011239;28;20487;-73
2023/05/30 07:56:43;;;;;;;18.75;5.05;;;;;;;;;;5011161;28;20034;-72
2023/05/30 07:59:09;;;;;;;50.00;6.97;;;;;;;;;;5011986;28;20064;-72
2023/05/30 08:01:35;;;;;;;45.80;7.68;;;;;;;;;;5012087;28;20033;-73
2023/05/30 08:04:01;;;;;;;31.30;5.60;;;;;;;;;;5011618;28;20042;-73
2023/05/30 08:06:27;;;;;;;26.40;5.47;;;;;;;;;;5011828;28;20101;-73
2023/05/30 08:08:53;;;;;;;26.23;7.03;;;;;;;;;;5012198;28;20549;-72
2023/05/30 08:11:20;;;;;;;22.55;5.70;;;;;;;;;;5012109;28;20029;-72
2023/05/30 08:13:47;;;;;;;21.35;6.55;;;;;;;;;;5011633;28;20386;-72
2023/05/30 08:16:13;;;;;;;22.73;6.18;;;;;;;;;;5011929;28;20291;-72
2023/05/30 08:18:39;;;;;;;21.25;5.85;;;;;;;;;;5012037;28;20080;-73
2023/05/30 08:21:07;;;;;;;16.90;5.80;;;;;;;;;;5012399;28;20533;-71
2023/05/30 08:23:33;;;;;;;15.98;4.55;;;;;;;;;;5012470;28;20113;-72
2023/05/30 08:25:59;;;;;;;21.85;6.22;;;;;;;;;;5011969;28;20454;-72
2023/05/30 08:28:25;;;;;;;17.90;5.32;;;;;;;;;;5011610;28;20391;-72
2023/05/30 08:30:51;;;;;;;21.20;5.55;;;;;;;;;;5013451;28;20421;-73
2023/05/30 08:33:21;;;;;;;20.45;6.45;;;;;;;;;;5011912;28;20025;-72
2023/05/30 08:35:48;;;;;;;19.88;5.22;;;;;;;;;;5012245;28;20022;-73
2023/05/30 08:38:14;;;;;;;20.58;5.05;;;;;;;;;;5011696;28;20340;-73
2023/05/30 08:40:43;;;;;;;23.52;7.32;;;;;;;;;;5011611;28;20030;-73
2023/05/30 08:43:10;;;;;;;20.27;5.68;;;;;;;;;;5011594;28;20088;-72
2023/05/30 08:45:36;;;;;;;24.77;6.03;;;;;;;;;;5012068;28;20105;-72
2023/05/30 08:48:02;;;;;;;19.80;5.93;;;;;;;;;;5011600;28;20037;-72
2023/05/30 08:50:29;;;;;;;22.30;6.00;;;;;;;;;;5015174;28;20026;-72
2023/05/30 08:52:57;;;;;;;19.58;6.30;;;;;;;;;;5015129;28;20054;-73
2023/05/30 08:55:35;;;;;;;23.27;6.00;;;;;;;;;;5015842;28;20026;-75
2023/05/30 08:58:07;;;;;;;25.33;5.95;;;;;;;;;;5015554;28;20433;-71
2023/05/30 09:00:34;;;;;;;22.23;6.10;;;;;;;;;;5015950;28;20022;-74
2023/05/30 09:03:00;;;;;;;20.08;6.25;;;;;;;;;;5014866;28;20113;-73
2023/05/30 09:05:26;;;;;;;22.95;7.03;;;;;;;;;;5013743;28;20407;-74
2023/05/30 09:07:56;;;;;;;16.80;5.13;;;;;;;;;;5015030;28;20044;-74
2023/05/30 09:10:22;;;;;;;14.32;4.65;;;;;;;;;;5015017;28;20025;-73
2023/05/30 09:12:48;;;;;;;13.40;4.70;;;;;;;;;;5015369;28;20030;-73
2023/05/30 09:15:14;;;;;;;13.98;4.28;;;;;;;;;;5014837;28;20073;-73
2023/05/30 09:17:41;;;;;;;15.50;4.78;;;;;;;;;;5015380;28;20037;-73
2023/05/30 09:20:09;;;;;;;18.17;5.57;;;;;;;;;;5016738;28;20046;-73
2023/05/30 09:22:35;;;;;;;17.33;6.30;;;;;;;;;;5016536;28;20026;-72
2023/05/30 09:25:02;;;;;;;16.27;5.63;;;;;;;;;;5017099;28;20057;-73
2023/05/30 09:27:29;;;;;;;18.85;6.00;;;;;;;;;;5014434;28;20022;-73
2023/05/30 09:29:58;;;;;;;17.77;5.82;;;;;;;;;;5014350;28;20049;-74
2023/05/30 09:32:34;;;;;;;17.23;4.80;;;;;;;;;;5013986;28;20030;-73
2023/05/30 09:35:03;;;;;;;23.33;5.22;;;;;;;;;;5014333;28;20029;-73
2023/05/30 09:37:35;;;;;;;19.17;4.97;;;;;;;;;;5015155;28;20017;-73
2023/05/30 09:40:06;;;;;;;13.98;4.93;;;;;;;;;;5015140;28;20022;-73
2023/05/30 09:42:39;;;;;;;19.90;5.70;;;;;;;;;;5018737;28;20410;-71
2023/05/30 09:45:06;;;;;;;17.42;5.55;;;;;;;;;;5016926;28;20026;-71
2023/05/30 09:47:37;;;;;;;21.25;7.38;;;;;;;;;;5016534;28;20018;-72
2023/05/30 09:50:04;;;;;;;20.10;7.20;;;;;;;;;;5016017;28;20024;-74
2023/05/30 09:52:30;;;;;;;20.95;6.65;;;;;;;;;;5014839;28;20029;-74
2023/05/30 09:54:56;;;;;;;22.20;6.65;;;;;;;;;;5016457;28;20080;-72
2023/05/30 09:57:24;;;;;;;17.58;6.60;;;;;;;;;;5015708;28;20030;-72
2023/05/30 09:59:50;;;;;;;18.88;6.30;;;;;;;;;;5015279;28;20341;-74
2023/05/30 10:02:23;;;;;;;15.52;5.80;;;;;;;;;;5013238;28;20459;-72
2023/05/30 10:04:52;;;;;;;16.23;5.82;;;;;;;;;;5014180;28;20037;-72
2023/05/30 10:07:21;;;;;;;17.02;5.97;;;;;;;;;;5013854;28;20021;-74
2023/05/30 10:09:51;;;;;;;15.93;6.15;;;;;;;;;;5014716;28;20038;-77
2023/05/30 10:12:17;;;;;;;19.33;5.90;;;;;;;;;;5015911;28;20107;-73
2023/05/30 10:14:43;;;;;;;12.43;5.28;;;;;;;;;;5016099;28;20080;-75
2023/05/30 10:17:11;;;;;;;13.85;4.80;;;;;;;;;;5014628;28;20025;-77
2023/05/30 10:19:44;;;;;;;14.07;4.82;;;;;;;;;;5015625;28;20026;-72
2023/05/30 10:22:10;;;;;;;17.95;4.75;;;;;;;;;;5013713;28;20105;-72
2023/05/30 10:24:37;;;;;;;19.10;5.32;;;;;;;;;;5013384;28;20343;-72
2023/05/30 10:27:04;;;;;;;18.52;6.05;;;;;;;;;;5013502;28;20022;-74
2023/05/30 10:29:38;;;;;;;17.00;5.80;;;;;;;;;;5013442;28;20176;-72
2023/05/30 10:32:06;;;;;;;17.48;5.22;;;;;;;;;;5012874;28;20483;-72
2023/05/30 10:34:38;;;;;;;15.43;4.90;;;;;;;;;;5013135;28;20116;-72
2023/05/30 10:37:05;;;;;;;15.68;6.78;;;;;;;;;;5013406;28;20033;-72
2023/05/30 10:39:58;;;;;;;25.30;8.10;;;;;;;;;;5014539;28;20032;-73
2023/05/30 10:42:32;;;;;;;16.38;6.25;;;;;;;;;;5015920;28;20026;-73
2023/05/30 10:45:10;;;;;;;26.15;7.43;;;;;;;;;;5017010;28;20030;-72
2023/05/30 10:47:36;;;;;;;13.95;5.18;;;;;;;;;;5015236;28;20515;-72
2023/05/30 10:50:07;;;;;;;12.77;5.75;;;;;;;;;;5014145;28;20058;-73
2023/05/30 10:52:33;;;;;;;18.95;7.15;;;;;;;;;;5014889;28;20018;-72
2023/05/30 10:55:00;;;;;;;18.98;5.93;;;;;;;;;;5014654;28;20475;-73
2023/05/30 10:57:28;;;;;;;28.13;9.80;;;;;;;;;;5012743;28;20022;-72
2023/05/30 10:59:57;;;;;;;15.07;6.45;;;;;;;;;;5012826;28;20036;-75
2023/05/30 11:02:38;;;;;;;15.90;6.03;;;;;;;;;;5012291;28;20030;-73
2023/05/30 11:05:09;;;;;;;20.63;6.90;;;;;;;;;;5013301;28;20458;-73
2023/05/30 11:07:37;;;;;;;14.65;5.30;;;;;;;;;;5012288;28;20022;-73
2023/05/30 11:10:08;;;;;;;15.60;6.60;;;;;;;;;;5012010;28;20072;-73
2023/05/30 11:12:34;;;;;;;22.35;6.82;;;;;;;;;;5011359;28;20022;-73
2023/05/30 11:15:00;;;;;;;14.48;5.38;;;;;;;;;;5012657;28;20026;-73
2023/05/30 11:17:44;;;;;;;15.10;4.72;;;;;;;;;;5012567;28;20390;-73
2023/05/30 11:20:14;;;;;;;19.65;5.35;;;;;;;;;;5013818;28;20033;-74
2023/05/30 11:22:41;;;;;;;16.25;4.55;;;;;;;;;;5014067;28;20152;-73
2023/05/30 11:25:33;;;;;;;13.57;4.78;;;;;;;;;;5013009;28;20025;-72
2023/05/30 11:28:06;;;;;;;20.83;8.05;;;;;;;;;;5010673;28;20049;-74
2023/05/30 11:30:37;;;;;;;15.50;6.45;;;;;;;;;;5014369;28;20383;-73
2023/05/30 11:33:04;;;;;;;18.60;5.68;;;;;;;;;;5012680;28;20030;-73
2023/05/30 11:35:31;;;;;;;16.42;5.90;;;;;;;;;;5012769;28;20022;-72
2023/05/30 11:37:57;;;;;;;16.27;5.25;;;;;;;;;;5012729;28;20086;-73
2023/05/30 11:40:28;;;;;;;14.63;5.40;;;;;;;;;;5013138;28;20483;-71
2023/05/30 11:42:54;;;;;;;12.95;5.10;;;;;;;;;;5011876;28;20044;-73
2023/05/30 11:45:23;;;;;;;19.70;5.43;;;;;;;;;;5009259;28;20032;-72
2023/05/30 11:47:50;;;;;;;15.27;5.75;;;;;;;;;;5011400;28;20097;-73
2023/05/30 11:50:16;;;;;;;16.42;5.93;;;;;;;;;;5020395;28;20035;-73
2023/05/30 11:52:42;;;;;;;19.63;5.85;;;;;;;;;;5030749;28;20022;-73
2023/05/30 11:55:08;;;;;;;17.45;5.85;;;;;;;;;;5031516;28;20105;-73
2023/05/30 11:57:35;;;;;;;20.15;5.40;;;;;;;;;;5031502;28;20104;-73
2023/05/30 12:00:01;;;;;;;19.73;5.20;;;;;;;;;;5031660;28;20124;-73
2023/05/30 12:02:31;;;;;;;18.15;5.55;;;;;;;;;;5031276;28;20022;-72
2023/05/30 12:05:03;;;;;;;20.63;5.60;;;;;;;;;;5031300;28;20517;-73
2023/05/30 12:07:33;;;;;;;14.35;5.05;;;;;;;;;;5030922;28;20031;-71
2023/05/30 12:09:59;;;;;;;10.55;5.10;;;;;;;;;;5030569;28;20083;-73
2023/05/30 12:12:26;;;;;;;17.30;4.85;;;;;;;;;;5029972;28;20021;-74
2023/05/30 12:14:55;;;;;;;20.23;5.40;;;;;;;;;;5031043;28;20385;-72
2023/05/30 12:17:21;;;;;;;19.63;5.70;;;;;;;;;;5031431;28;20038;-72
2023/05/30 12:19:50;;;;;;;19.00;6.70;;;;;;;;;;5030913;28;20371;-72
2023/05/30 12:22:17;;;;;;;34.67;11.35;;;;;;;;;;5031671;28;20021;-73
2023/05/30 12:24:44;;;;;;;19.25;5.20;;;;;;;;;;5034824;28;20053;-73
2023/05/30 12:27:19;;;;;;;16.15;5.10;;;;;;;;;;5035262;28;20555;-73
2023/05/30 12:29:45;;;;;;;13.05;4.55;;;;;;;;;;5034830;28;20021;-73
2023/05/30 12:32:11;;;;;;;17.80;4.78;;;;;;;;;;5034410;28;20037;-74
2023/05/30 12:34:46;;;;;;;15.68;5.88;;;;;;;;;;5035766;28;20026;-73
2023/05/30 12:37:13;;;;;;;19.80;8.15;;;;;;;;;;5031067;28;20025;-72
2023/05/30 12:40:12;;;;;;;17.95;5.85;;;;;;;;;;5015342;28;20026;-72
2023/05/30 12:42:43;;;;;;;15.48;5.55;;;;;;;;;;5001309;28;20030;-73
2023/05/30 12:45:10;;;;;;;20.95;5.88;;;;;;;;;;5034900;28;20079;-73
2023/05/30 12:47:36;;;;;;;13.85;5.00;;;;;;;;;;5015290;28;20014;-73
2023/05/30 12:50:02;;;;;;;18.52;6.00;;;;;;;;;;5015693;28;20070;-72
2023/05/30 12:52:29;;;;;;;12.88;5.47;;;;;;;;;;5014696;28;20026;-71
2023/05/30 12:54:55;;;;;;;15.18;5.45;;;;;;;;;;5015368;28;20034;-72
2023/05/30 12:57:25;;;;;;;13.60;5.00;;;;;;;;;;5014824;28;20036;-73
2023/05/30 12:59:52;;;;;;;14.13;5.00;;;;;;;;;;5013523;28;20037;-72
2023/05/30 13:02:20;;;;;;;14.05;5.40;;;;;;;;;;5013197;28;20030;-71
2023/05/30 13:04:46;;;;;;;13.02;4.78;;;;;;;;;;5015828;28;20076;-71
2023/05/30 13:07:12;;;;;;;20.88;6.13;;;;;;;;;;5016045;28;20057;-72
2023/05/30 13:09:38;;;;;;;15.65;5.75;;;;;;;;;;5016642;28;20029;-73
2023/05/30 13:12:08;;;;;;;18.73;5.93;;;;;;;;;;5014874;28;20113;-73
2023/05/30 13:14:34;;;;;;;15.30;6.47;;;;;;;;;;5018842;28;20033;-72
2023/05/30 13:17:00;;;;;;;18.55;8.55;;;;;;;;;;5018778;28;20025;-72
2023/05/30 13:19:26;;;;;;;16.63;5.60;;;;;;;;;;5012060;28;20113;-72
2023/05/30 13:21:52;;;;;;;10.50;5.03;;;;;;;;;;5013638;28;20471;-71
2023/05/30 13:24:18;;;;;;;13.45;5.30;;;;;;;;;;5009832;28;20101;-72
2023/05/30 13:26:44;;;;;;;12.52;5.47;;;;;;;;;;5008302;28;20026;-70
2023/05/30 13:29:10;;;;;;;13.15;5.10;;;;;;;;;;5013829;28;20415;-73
2023/05/30 13:31:36;;;;;;;17.48;5.20;;;;;;;;;;5012416;28;20022;-71
2023/05/30 13:34:02;;;;;;;14.50;6.15;;;;;;;;;;5012950;28;20022;-72
2023/05/30 13:36:29;;;;;;;16.75;5.40;;;;;;;;;;5014126;28;20057;-73
2023/05/30 13:38:56;;;;;;;16.13;6.00;;;;;;;;;;5012588;28;20021;-71
2023/05/30 13:41:22;;;;;;;17.27;6.05;;;;;;;;;;5010296;28;20033;-72
2023/05/30 13:43:48;;;;;;;15.85;5.22;;;;;;;;;;5013030;28;20034;-72
2023/05/30 13:46:15;;;;;;;12.38;5.95;;;;;;;;;;5013144;28;20075;-72
2023/05/30 13:48:41;;;;;;;10.85;4.88;;;;;;;;;;5013539;28;20112;-71
2023/05/30 13:51:07;;;;;;;22.58;8.43;;;;;;;;;;5014130;28;20057;-72
2023/05/30 13:53:33;;;;;;;20.35;6.43;;;;;;;;;;5013090;28;20065;-73
2023/05/30 13:55:59;;;;;;;13.57;4.60;;;;;;;;;;5013925;28;20495;-71
2023/05/30 13:58:25;;;;;;;16.13;5.18;;;;;;;;;;5014446;28;20033;-73
2023/05/30 14:00:51;;;;;;;13.95;5.15;;;;;;;;;;5014347;28;20113;-74
2023/05/30 14:03:17;;;;;;;19.30;5.50;;;;;;;;;;5016589;28;20026;-76
2023/05/30 14:05:43;;;;;;;14.63;6.07;;;;;;;;;;5013735;28;20022;-73
2023/05/30 14:08:09;;;;;;;18.00;5.07;;;;;;;;;;5016753;28;20596;-72
2023/05/30 14:10:35;;;;;;;17.02;5.10;;;;;;;;;;5015380;28;20034;-75
2023/05/30 14:13:01;;;;;;;15.50;5.53;;;;;;;;;;5015281;28;20551;-73
2023/05/30 14:15:30;;;;;;;17.70;4.65;;;;;;;;;;5014533;28;20086;-76
2023/05/30 14:17:57;;;;;;;16.30;5.70;;;;;;;;;;5015663;28;20041;-76
2023/05/30 14:20:23;;;;;;;16.25;5.45;;;;;;;;;;5013185;28;20396;-73
2023/05/30 14:22:49;;;;;;;15.43;6.13;;;;;;;;;;5014700;28;20026;-72
2023/05/30 14:25:15;;;;;;;14.70;5.35;;;;;;;;;;5015482;28;20116;-74
2023/05/30 14:27:42;;;;;;;20.23;6.60;;;;;;;;;;5015361;28;20022;-73
2023/05/30 14:30:12;;;;;;;21.23;7.88;;;;;;;;;;5014261;28;20049;-74
2023/05/30 14:32:39;;;;;;;16.02;5.03;;;;;;;;;;5013442;28;20029;-74